This is the latest recevied weather packets stored in our database for station/object K7CTM. If no packets are shown the sender has not sent any weather packets the latest 10 day(s).
| Time | Temp. | Humidity | Pressure | Rain* | Wind** | Luminosity | Snow |
|---|---|---|---|---|---|---|---|
| 1777704512 | 8.33° C | 42% | 1027.8 hPa | 0 mm | - | 0 W/m² | - |
| 1777704211 | 8.89° C | 41% | 1027.7 hPa | 0 mm | - | 0 W/m² | - |
| 1777703907 | 8.33° C | 41% | 1027.7 hPa | 0 mm | - | 0 W/m² | - |
| 1777703605 | 8.89° C | 41% | 1027.8 hPa | 0 mm | - | 0 W/m² | - |
| 1777703302 | 8.89° C | 42% | 1027.9 hPa | 0 mm | - | 0 W/m² | - |
| 1777703000 | 8.33° C | 42% | 1027.8 hPa | 0 mm | - | 0 W/m² | - |
| 1777702698 | 8.33° C | 42% | 1027.9 hPa | 0 mm | - | 0 W/m² | - |
| 1777702396 | 8.89° C | 41% | 1027.9 hPa | 0 mm | - | 0 W/m² | - |
| 1777702091 | 8.89° C | 41% | 1027.9 hPa | 0 mm | - | 0 W/m² | - |
| 1777701787 | 8.33° C | 44% | 1027.9 hPa | 0 mm | - | 0 W/m² | - |
| 1777701485 | 8.33° C | 43% | 1027.8 hPa | 0 mm | - | 0 W/m² | - |
| 1777701182 | 8.33° C | 43% | 1027.9 hPa | 0 mm | - | 0 W/m² | - |
| 1777700881 | 8.89° C | 42% | 1027.8 hPa | 0 mm | - | 0 W/m² | - |
| 1777700579 | 8.89° C | 44% | 1027.9 hPa | 0 mm | - | 0 W/m² | - |
| 1777700276 | 9.44° C | 42% | 1027.9 hPa | 0 mm | - | 0 W/m² | - |
| 1777699973 | 10° C | 40% | 1028 hPa | 0 mm | - | 0 W/m² | - |
| 1777699671 | 10° C | 39% | 1027.8 hPa | 0 mm | - | 0 W/m² | - |
| 1777699369 | 10.56° C | 38% | 1027.5 hPa | 0 mm | - | 0 W/m² | - |
| 1777699066 | 10.56° C | 38% | 1027.9 hPa | 0 mm | - | 0 W/m² | - |
| 1777698765 | 10° C | 40% | 1027.8 hPa | 0 mm | - | 0 W/m² | - |
| 1777698461 | 9.44° C | 44% | 1027.7 hPa | 0 mm | - | 0 W/m² | - |
| 1777698156 | 10° C | 43% | 1027.7 hPa | 0 mm | - | 0 W/m² | - |
| 1777697854 | 10° C | 41% | 1027.9 hPa | 0 mm | - | 0 W/m² | - |
| 1777697551 | 11.11° C | 37% | 1027.7 hPa | 0 mm | - | 0 W/m² | - |
| 1777697248 | 10.56° C | 36% | 1027.7 hPa | 0 mm | - | 0 W/m² | - |
* Rain latest hour (hover to see other rain measurements)
** Current wind speed in m/s (hover to see current wind gust speed)